Terminal Aerodrome Forecast
Issued by NWS

Home | Current Version | Previous Version | Text Only | Print | Product List | Glossary Off
Versions: 1 2 3 4 5 6 7 8 9 10 11 12 13 14 15 16 17 18 19 20

000
FTUS43 KICT 262322
TAFSLN
TAF
KSLN 262322Z 2700/2724 06009KT 6SM -TSRA OVC015CB
      TEMPO 2700/2703 4SM SHRA SCT015 OVC030
     FM270300 03009KT 5SM -SHRA BR OVC010
     FM270600 02009KT 5SM BR VCSH OVC008
     FM270800 36009KT 4SM BR OVC005
     FM271500 35009KT P6SM SCT025=

USA.gov is the U.S. government's official web portal to all federal, state and local government web resources and services.